createdAt,value
2022-10-05T00:02:22.632Z,98770.28
2022-10-05T00:07:46.589Z,98772.91
2022-10-05T00:13:11.577Z,98777.84
2022-10-05T00:18:38.762Z,98771.38
2022-10-05T00:24:07.639Z,98760.59
2022-10-05T00:29:37.597Z,98760.19
2022-10-05T00:35:06.614Z,98763.19
2022-10-05T00:40:41.605Z,98760.41
2022-10-05T00:46:14.696Z,98763.53
2022-10-05T00:51:45.632Z,98749.25
2022-10-05T00:57:25.664Z,98737.78
2022-10-05T01:02:59.629Z,98733.47
2022-10-05T01:08:38.623Z,98732.19
2022-10-05T01:14:12.633Z,98737.50
2022-10-05T01:20:01.628Z,98757.91
2022-10-05T01:25:38.651Z,98737.06
2022-10-05T01:31:15.719Z,98741.44
2022-10-05T01:36:47.967Z,98737.38
2022-10-05T01:42:18.643Z,98735.38
2022-10-05T01:47:53.662Z,98730.00
2022-10-05T01:53:36.632Z,98724.91
2022-10-05T01:59:09.646Z,98728.44
2022-10-05T02:05:01.580Z,98721.50
2022-10-05T02:10:33.643Z,98733.97
2022-10-05T02:16:02.726Z,98721.50
2022-10-05T02:21:30.683Z,98714.06
2022-10-05T02:26:57.697Z,98721.72
2022-10-05T02:32:30.670Z,98722.34
2022-10-05T02:38:05.655Z,98718.53
2022-10-05T02:43:40.686Z,98723.41
2022-10-05T02:49:21.673Z,98723.75
2022-10-05T02:55:07.692Z,98733.63
2022-10-05T03:00:34.702Z,98732.38
2022-10-05T03:06:03.705Z,98728.00
2022-10-05T03:11:44.687Z,98724.34
2022-10-05T03:17:21.697Z,98718.72
2022-10-05T03:22:57.675Z,98714.53
2022-10-05T03:28:35.738Z,98704.63
2022-10-05T03:34:08.726Z,98697.59
2022-10-05T03:39:41.742Z,98705.97
2022-10-05T03:45:18.749Z,98716.88
2022-10-05T03:50:55.830Z,98711.50
2022-10-05T03:56:25.782Z,98710.25
2022-10-05T04:01:58.751Z,98714.34
2022-10-05T04:07:36.741Z,98716.31
2022-10-05T04:13:07.802Z,98719.72
2022-10-05T04:18:41.838Z,98711.78
2022-10-05T04:24:14.735Z,98700.47
2022-10-05T04:29:44.737Z,98705.03
2022-10-05T04:35:23.737Z,98709.41
2022-10-05T04:41:03.849Z,98698.50
2022-10-05T04:46:46.070Z,98709.38
2022-10-05T04:52:17.745Z,98701.31
2022-10-05T04:57:53.766Z,98693.84
2022-10-05T05:03:36.822Z,98699.22
2022-10-05T05:09:30.774Z,98699.34
2022-10-05T05:15:12.795Z,98707.56
2022-10-05T05:20:42.753Z,98709.81
2022-10-05T05:26:45.445Z,98715.94
2022-10-05T05:32:16.751Z,98718.34
2022-10-05T05:37:47.786Z,98719.47
2022-10-05T05:43:32.755Z,98723.56
2022-10-05T05:48:59.801Z,98729.09
2022-10-05T05:54:37.790Z,98738.13
2022-10-05T06:00:14.799Z,98732.75
2022-10-05T06:05:47.773Z,98731.94
2022-10-05T06:11:19.790Z,98727.09
2022-10-05T06:16:58.801Z,98727.91
2022-10-05T06:22:30.813Z,98732.78
2022-10-05T06:28:15.854Z,98727.81
2022-10-05T06:33:55.815Z,98727.28
2022-10-05T06:39:42.793Z,98716.03
2022-10-05T06:45:15.788Z,98719.31
2022-10-05T06:50:58.836Z,98723.75
2022-10-05T06:56:40.822Z,98716.41
2022-10-05T07:02:12.908Z,98713.72
2022-10-05T07:07:43.826Z,98706.63
2022-10-05T07:13:29.802Z,98705.41
2022-10-05T07:19:08.875Z,98710.16
2022-10-05T07:24:46.816Z,98706.69
2022-10-05T07:30:14.839Z,98711.84
2022-10-05T07:36:02.812Z,98706.00
2022-10-05T07:41:38.808Z,98703.88
2022-10-05T07:47:10.991Z,98695.00
2022-10-05T07:52:45.855Z,98697.59
2022-10-05T07:58:21.838Z,98711.78
2022-10-05T08:03:56.814Z,98699.16
2022-10-05T08:09:30.881Z,98691.22
2022-10-05T08:15:05.935Z,98677.91
2022-10-05T08:20:43.839Z,98662.19
2022-10-05T08:26:22.871Z,98666.94
2022-10-05T08:31:54.915Z,98661.50
2022-10-05T08:37:26.850Z,98648.47
2022-10-05T08:43:13.943Z,98642.91
2022-10-05T08:49:11.867Z,98647.03
2022-10-05T08:54:55.873Z,98638.19
2022-10-05T09:00:23.892Z,98635.94
2022-10-05T09:06:34.071Z,98644.78
2022-10-05T09:12:11.921Z,98651.56
2022-10-05T09:17:59.867Z,98642.28
2022-10-05T09:23:46.828Z,98636.38
2022-10-05T09:29:21.876Z,98637.59
2022-10-05T09:35:04.865Z,98638.63
2022-10-05T09:41:10.875Z,98632.19
2022-10-05T09:46:57.896Z,98628.38
2022-10-05T09:52:33.916Z,98628.19
2022-10-05T09:58:20.979Z,98622.84
2022-10-05T10:04:36.897Z,98610.00
2022-10-05T10:10:25.918Z,98599.66
2022-10-05T10:16:24.983Z,98585.31
2022-10-05T10:22:40.913Z,98580.66
2022-10-05T10:28:39.037Z,98561.66
2022-10-05T10:34:28.906Z,98574.28
2022-10-05T10:40:12.932Z,98580.06
2022-10-05T10:46:00.968Z,98586.06
2022-10-05T10:51:33.071Z,98579.94
2022-10-05T10:57:16.962Z,98586.38
2022-10-05T11:03:16.987Z,98589.78
2022-10-05T11:09:07.950Z,98596.13
2022-10-05T11:14:52.022Z,98587.38
2022-10-05T11:20:59.029Z,98598.34
2022-10-05T11:26:42.938Z,98587.53
2022-10-05T11:32:31.955Z,98583.38
2022-10-05T11:38:10.942Z,98577.34
2022-10-05T11:43:55.975Z,98573.78
2022-10-05T11:49:35.066Z,98565.38
2022-10-05T11:55:14.963Z,98569.38
2022-10-05T12:00:50.034Z,98555.09
2022-10-05T12:06:31.011Z,98550.69
2022-10-05T12:12:12.959Z,98548.59
2022-10-05T12:17:58.003Z,98551.50
2022-10-05T12:23:30.004Z,98550.47
2022-10-05T12:29:00.998Z,98545.63
2022-10-05T12:34:38.006Z,98529.25
2022-10-05T12:40:13.055Z,98533.84
2022-10-05T12:45:50.107Z,98540.59
2022-10-05T12:51:26.000Z,98531.72
2022-10-05T12:56:58.022Z,98521.63
2022-10-05T13:02:34.990Z,98530.66
2022-10-05T13:08:15.038Z,98523.00
2022-10-05T13:13:56.035Z,98521.50
2022-10-05T13:19:44.042Z,98516.81
2022-10-05T13:25:24.111Z,98521.75
2022-10-05T13:30:54.061Z,98518.56
2022-10-05T13:36:27.026Z,98527.47
2022-10-05T13:42:02.048Z,98519.59
2022-10-05T13:47:34.092Z,98508.44
2022-10-05T13:53:07.102Z,98514.63
2022-10-05T13:58:44.103Z,98520.13
2022-10-05T14:04:23.119Z,98526.41
2022-10-05T14:09:50.090Z,98518.84
2022-10-05T14:15:31.060Z,98518.38
2022-10-05T14:20:55.055Z,98517.94
2022-10-05T14:26:41.279Z,98516.66
2022-10-05T14:32:11.371Z,98526.00
2022-10-05T14:37:43.101Z,98513.41
2022-10-05T14:43:09.081Z,98507.78
2022-10-05T14:48:47.096Z,98505.44
2022-10-05T14:54:21.170Z,98506.06
2022-10-05T15:00:10.128Z,98496.16
2022-10-05T15:05:42.512Z,98488.91
2022-10-05T15:11:13.090Z,98489.56
2022-10-05T15:16:45.163Z,98484.19
2022-10-05T15:22:25.116Z,98492.50
2022-10-05T15:28:03.501Z,98483.72
2022-10-05T15:33:38.133Z,98476.47
2022-10-05T15:39:15.113Z,98475.34
2022-10-05T15:44:56.099Z,98468.16
2022-10-05T15:50:32.109Z,98467.41
2022-10-05T15:56:02.143Z,98466.25
2022-10-05T16:01:31.207Z,98463.34
2022-10-05T16:07:13.145Z,98462.97
2022-10-05T16:12:50.181Z,98458.78
2022-10-05T16:18:43.145Z,98460.47
2022-10-05T16:24:23.132Z,98460.91
2022-10-05T16:30:00.159Z,98461.34
2022-10-05T16:35:34.184Z,98458.75
2022-10-05T16:41:10.266Z,98457.69
2022-10-05T16:46:45.294Z,98465.19
2022-10-05T16:52:14.166Z,98465.34
2022-10-05T16:57:43.166Z,98480.16
2022-10-05T17:03:31.150Z,98481.81
2022-10-05T17:09:24.155Z,98495.13
2022-10-05T17:14:57.616Z,98496.47
2022-10-05T17:20:42.967Z,98496.38
2022-10-05T17:26:11.201Z,98501.13
2022-10-05T17:31:39.220Z,98500.03
2022-10-05T17:37:07.175Z,98497.00
2022-10-05T17:42:58.373Z,98499.28
2022-10-05T17:48:25.576Z,98499.44
2022-10-05T17:54:10.205Z,98493.34
2022-10-05T17:59:55.223Z,98491.88
2022-10-05T18:05:34.225Z,98498.13
2022-10-05T18:11:27.231Z,98494.31
2022-10-05T18:17:15.254Z,98499.13
2022-10-05T18:22:41.231Z,98496.97
2022-10-05T18:28:18.296Z,98511.88
2022-10-05T18:34:14.282Z,98515.25
2022-10-05T18:40:00.557Z,98529.28
2022-10-05T18:45:34.730Z,98542.88
2022-10-05T18:51:08.255Z,98547.06
2022-10-05T18:56:43.250Z,98560.47
2022-10-05T19:02:21.344Z,98560.47
2022-10-05T19:07:57.235Z,98555.88
2022-10-05T19:13:36.225Z,98556.72
2022-10-05T19:19:33.507Z,98562.75
2022-10-05T19:25:07.262Z,98569.69
2022-10-05T19:30:35.286Z,98579.25
2022-10-05T19:36:15.277Z,98589.09
2022-10-05T19:41:54.288Z,98596.41
2022-10-05T19:47:31.271Z,98601.00
2022-10-05T19:53:01.283Z,98603.91
2022-10-05T19:58:35.286Z,98607.00
2022-10-05T20:04:04.839Z,98611.78
2022-10-05T20:09:39.274Z,98610.31
2022-10-05T20:15:30.342Z,98606.69
2022-10-05T20:20:56.824Z,98616.25
2022-10-05T20:27:09.656Z,98615.72
2022-10-05T20:32:36.294Z,98627.50
2022-10-05T20:38:02.325Z,98638.94
2022-10-05T20:43:29.343Z,98659.72
2022-10-05T20:48:55.465Z,98666.59
2022-10-05T20:54:27.709Z,98665.72
2022-10-05T21:00:01.359Z,98673.69
2022-10-05T21:05:26.354Z,98678.66
2022-10-05T21:10:50.308Z,98692.06
2022-10-05T21:16:20.355Z,98688.03
2022-10-05T21:21:44.354Z,98688.03
2022-10-05T21:27:09.331Z,98700.56
2022-10-05T21:32:41.930Z,98702.63
2022-10-05T21:38:09.547Z,98709.66
2022-10-05T21:43:34.349Z,98707.59
2022-10-05T21:49:02.337Z,98705.63
2022-10-05T21:54:29.358Z,98705.81
2022-10-05T21:59:55.393Z,98722.75
2022-10-05T22:05:28.435Z,98726.34
2022-10-05T22:10:53.375Z,98725.47
2022-10-05T22:16:18.807Z,98723.31
2022-10-05T22:21:48.407Z,98730.53
2022-10-05T22:27:12.374Z,98735.09
2022-10-05T22:32:37.398Z,98743.47
2022-10-05T22:38:04.373Z,98746.53
2022-10-05T22:43:29.700Z,98757.13
2022-10-05T22:48:54.363Z,98764.97
2022-10-05T22:54:21.373Z,98767.66
2022-10-05T22:59:48.401Z,98770.28
2022-10-05T23:05:15.386Z,98772.72
2022-10-05T23:10:43.868Z,98781.31
2022-10-05T23:16:20.468Z,98778.66
2022-10-05T23:21:45.423Z,98782.41
2022-10-05T23:27:12.408Z,98777.72
2022-10-05T23:32:37.439Z,98785.97
2022-10-05T23:38:01.811Z,98777.22
2022-10-05T23:43:29.430Z,98793.28
2022-10-05T23:48:56.418Z,98797.50
2022-10-05T23:54:23.425Z,98807.72
2022-10-05T23:59:50.399Z,98803.84
